05:33
Airports
History
Links
Donate
Help keep this website running!
PayPal
Bitcoin
This page is community maintained. The information is intended for PC simulator navigation or reference.
Always use approved charts for navigation.
SDNT
Aerorancho
Aerorancho (SDNT)
Brasilia, Distrito Federal, Brazil (73252)
4
Lat/Lng:15° 40' 54" S / 47° 46' 8" W
-15.681667 / -47.768889
Elevation:3563'ft / 1086mMSL
ID / ICAO:SDNT
Runways:1
Longest:14-32
Gravel 1,207m / 3,960ft
Nearby Weather05:00 GMT 2017-12-13
Nearby weather at SBBR, Brasilia Presidente Juscelino Kubitsch located 16.5 nautical miles from SDNT
Altimeter: 30.00
Visibility: 6.2 statute miles
Wind: 3 knots (from 090°)
Temp: 18°c / 64°f
Humidity: 100.0%

METAR: SBBR 130500Z 09003KT 9999 -RA FEW004 SCT035 OVC070 18/18 Q1016

(Powered by phpweather)
Runway 14 / 32
Dimensions:1207 x 27.1m 3960' x 89'ft
Surface:Gravel
Runway 14 [A]Runway 32 [B]
Heading:120°TH 300°TH
Lat:
Lng:
15° 40' 44.24"S
47° 46' 25.57"W
15° 41' 3.76"S
47° 45' 50.43"W
User Notes and Comments
15° 40' 54" S / 47° 46' 8" W
Distance To
Airport ID:
Nearby Airports
4 Piquet 12.2 NM
SSGP S 191°
4 Planaltina 14.9 NM
SWPV E 89°
(C) Brasilia Presidente Juscelino Kubitsch 16.5 NM
SBBR ( WX ) SW 217°
4 Botelho 18.3 NM
SIQE S 169°
(C) Formosa 29.5 NM
SWFR ENE 72°
(U) Fazenda Pamplona 38.2 NM
SWFA SSE 165°
4 Fazenda Palma 40.7 NM
SJPH SSW 210°
VFR Chart
Flight Planning at SkyVector.com